createdAt,value
2023-04-27T00:00:02.008Z,0
2023-04-27T00:05:02.215Z,0
2023-04-27T00:10:01.917Z,0
2023-04-27T00:15:01.947Z,0
2023-04-27T00:20:01.974Z,0
2023-04-27T00:25:01.954Z,0
2023-04-27T00:30:01.941Z,0
2023-04-27T00:35:02.016Z,0
2023-04-27T00:40:01.950Z,0
2023-04-27T00:45:01.927Z,0
2023-04-27T00:50:01.950Z,0
2023-04-27T00:55:01.943Z,0
2023-04-27T01:00:01.914Z,0
2023-04-27T01:05:02.074Z,0
2023-04-27T01:10:02.005Z,0
2023-04-27T01:15:01.991Z,0
2023-04-27T01:20:01.977Z,0
2023-04-27T01:25:01.984Z,0
2023-04-27T01:30:02.009Z,0
2023-04-27T01:35:01.967Z,0
2023-04-27T01:40:02.308Z,0
2023-04-27T01:45:01.987Z,0
2023-04-27T01:50:02.148Z,0
2023-04-27T01:55:02.196Z,0
2023-04-27T02:00:02.139Z,0
2023-04-27T02:05:02.234Z,0
2023-04-27T02:10:02.208Z,0
2023-04-27T02:15:02.186Z,0
2023-04-27T02:20:02.102Z,0
2023-04-27T02:25:01.979Z,0
2023-04-27T02:30:02.030Z,0
2023-04-27T02:35:02.051Z,0
2023-04-27T02:40:02.057Z,0
2023-04-27T02:45:02.046Z,0
2023-04-27T02:50:02.052Z,0
2023-04-27T02:55:02.136Z,0
2023-04-27T03:00:03.693Z,0
2023-04-27T03:05:02.125Z,0
2023-04-27T03:10:02.153Z,0
2023-04-27T03:15:02.061Z,0
2023-04-27T03:20:02.059Z,0
2023-04-27T03:25:02.074Z,0
2023-04-27T03:30:02.096Z,0
2023-04-27T03:35:02.097Z,0
2023-04-27T03:40:02.053Z,0
2023-04-27T03:45:02.080Z,0
2023-04-27T03:50:02.093Z,0
2023-04-27T03:55:02.142Z,0.3478624338624338
2023-04-27T04:00:02.141Z,0.36009523809523813
2023-04-27T04:05:02.174Z,0.5646772486772488
2023-04-27T04:10:02.146Z,0.5270582010582011
2023-04-27T04:15:02.210Z,0.5647724867724868
2023-04-27T04:20:02.096Z,0.7361587301587302
2023-04-27T04:25:02.275Z,1.4156296296296298
2023-04-27T04:30:02.304Z,2.387058201058201
2023-04-27T04:35:02.301Z,1.8767724867724866
2023-04-27T04:40:02.300Z,2.2944550264550263
2023-04-27T04:45:02.348Z,3.1003174603174606
2023-04-27T04:50:02.378Z,1.8862645502645503
2023-04-27T04:55:02.273Z,1.9644550264550265
2023-04-27T05:00:02.253Z,2.600074074074074
2023-04-27T05:05:02.205Z,3.0806031746031746
2023-04-27T05:10:02.184Z,3.346624338624339
2023-04-27T05:15:02.165Z,3.923968253968254
2023-04-27T05:20:02.260Z,4.299428571428572
2023-04-27T05:25:02.306Z,3.2372486772486777
2023-04-27T05:30:02.175Z,3.971544973544974
2023-04-27T05:35:02.221Z,4.4369947089947095
2023-04-27T05:40:02.224Z,5.261354497354498
2023-04-27T05:45:02.221Z,7.063142857142857
2023-04-27T05:50:02.208Z,7.38525925925926
2023-04-27T05:55:02.205Z,8.461121693121694
2023-04-27T06:00:02.212Z,9.941227513227513
2023-04-27T06:05:02.332Z,11.642994708994708
2023-04-27T06:10:02.274Z,13.113957671957671
2023-04-27T06:15:02.229Z,15.681798941798942
2023-04-27T06:20:02.270Z,17.828582010582007
2023-04-27T06:25:02.250Z,20.156984126984128
2023-04-27T06:30:02.232Z,19.541619047619047
2023-04-27T06:35:02.224Z,16.13585185185185
2023-04-27T06:40:02.285Z,28.128169312169316
2023-04-27T06:45:02.211Z,18.672920634920636
2023-04-27T06:50:02.449Z,34.817682539682544
2023-04-27T06:55:02.456Z,25.26182010582011
2023-04-27T07:00:02.433Z,24.21887830687831
2023-04-27T07:05:02.541Z,38.73769312169312
2023-04-27T07:10:02.754Z,30.78984126984127
2023-04-27T07:15:02.361Z,24.690603174603176
2023-04-27T07:20:02.338Z,41.29921693121694
2023-04-27T07:25:02.255Z,39.546804232804234
2023-04-27T07:30:02.281Z,44.22571428571428
2023-04-27T07:35:02.351Z,46.58466666666667
2023-04-27T07:40:02.351Z,25.11556613756614
2023-04-27T07:45:02.326Z,26.25078306878307
2023-04-27T07:50:02.307Z,47.44373544973545
2023-04-27T07:55:02.334Z,41.05119576719577
2023-04-27T08:00:02.400Z,24.123873015873016
2023-04-27T08:05:03.038Z,43.75635978835978
2023-04-27T08:10:02.337Z,51.5533544973545
2023-04-27T08:15:02.293Z,26.226677248677248
2023-04-27T08:20:02.356Z,45.13918518518519
2023-04-27T08:25:02.334Z,42.576497354497356
2023-04-27T08:30:02.344Z,34.14716402116402
2023-04-27T08:35:02.461Z,70.5158201058201
2023-04-27T08:40:02.278Z,36.93244444444444
2023-04-27T08:45:02.398Z,53.92575661375661
2023-04-27T08:50:02.399Z,17.49084656084656
2023-04-27T08:55:02.323Z,11.877904761904762
2023-04-27T09:00:02.439Z,76.17193650793651
2023-04-27T09:05:02.548Z,76.1923492063492
2023-04-27T09:10:02.413Z,74.446
2023-04-27T09:15:02.393Z,80.46380952380953
2023-04-27T09:20:02.379Z,73.22198941798942
2023-04-27T09:25:02.377Z,56.08784126984128
2023-04-27T09:30:02.394Z,71.9855873015873
2023-04-27T09:35:02.429Z,83.74813756613757
2023-04-27T09:40:02.640Z,85.10034920634921
2023-04-27T09:45:02.565Z,84.74430687830689
2023-04-27T09:50:02.566Z,88.32194708994709
2023-04-27T09:55:02.548Z,40.0037037037037
2023-04-27T10:00:02.577Z,48.63568253968254
2023-04-27T10:05:02.590Z,88.87134391534393
2023-04-27T10:10:02.574Z,87.88591534391536
2023-04-27T10:15:02.540Z,87.3058941798942
2023-04-27T10:20:02.700Z,90.59556613756614
2023-04-27T10:25:02.670Z,85.00564021164021
2023-04-27T10:30:02.614Z,86.11194708994708
2023-04-27T10:35:02.678Z,77.2404126984127
2023-04-27T10:40:02.679Z,82.88474074074075
2023-04-27T10:45:02.615Z,93.18967195767198
2023-04-27T10:50:02.602Z,48.722687830687825
2023-04-27T10:55:02.743Z,79.2084126984127
2023-04-27T11:00:02.638Z,93.01624338624337
2023-04-27T11:05:02.702Z,42.180253968253965
2023-04-27T11:10:02.602Z,82.36975661375662
2023-04-27T11:15:02.587Z,93.66278306878306
2023-04-27T11:20:02.620Z,95.07166137566139
2023-04-27T11:25:02.651Z,71.69012698412699
2023-04-27T11:30:02.629Z,81.93934391534393
2023-04-27T11:35:02.690Z,93.48680423280425
2023-04-27T11:40:02.683Z,94.37688888888889
2023-04-27T11:45:02.692Z,53.265830687830686
2023-04-27T11:50:02.651Z,93.31559788359789
2023-04-27T11:55:02.502Z,94.10593650793652
2023-04-27T12:00:02.546Z,93.49766137566138
2023-04-27T12:05:02.886Z,55.65747089947091
2023-04-27T12:20:02.751Z,84.79625396825396
2023-04-27T12:25:02.550Z,84.09768253968254
2023-04-27T12:30:02.612Z,68.07733333333333
2023-04-27T12:35:02.578Z,85.70695238095239
2023-04-27T12:40:02.573Z,79.90518518518519
2023-04-27T12:45:02.538Z,83.40053968253969
2023-04-27T12:50:02.558Z,78.03020105820107
2023-04-27T12:55:02.596Z,50.22698412698412
2023-04-27T13:00:02.561Z,86.49232804232805
2023-04-27T13:05:02.630Z,64.25668783068784
2023-04-27T13:10:02.593Z,91.44421164021165
2023-04-27T13:15:02.627Z,84.34246560846562
2023-04-27T13:20:02.622Z,83.53677248677249
2023-04-27T13:25:02.582Z,82.95280423280424
2023-04-27T13:30:02.558Z,77.45863492063492
2023-04-27T13:35:02.646Z,67.25767195767196
2023-04-27T13:40:02.615Z,81.17971428571428
2023-04-27T13:45:02.639Z,80.38997883597884
2023-04-27T13:50:02.692Z,78.92154497354498
2023-04-27T13:55:02.609Z,77.68915343915343
2023-04-27T14:00:02.695Z,76.71769312169312
2023-04-27T14:05:02.737Z,75.07445502645503
2023-04-27T14:10:02.701Z,74.25347089947091
2023-04-27T14:15:02.604Z,73.40733333333334
2023-04-27T14:20:02.641Z,72.79748148148148
2023-04-27T14:25:02.640Z,71.64975661375661
2023-04-27T14:30:02.690Z,52.44742857142858
2023-04-27T14:35:02.662Z,69.4969947089947
2023-04-27T14:40:02.615Z,67.94855026455026
2023-04-27T14:45:02.996Z,66.36627513227513
2023-04-27T14:50:02.676Z,64.88631746031747
2023-04-27T14:55:02.645Z,63.2680634920635
2023-04-27T15:00:02.671Z,62.15975661375661
2023-04-27T15:05:02.779Z,60.48777777777779
2023-04-27T15:10:02.709Z,58.09741798941799
2023-04-27T15:15:02.714Z,55.91288888888889
2023-04-27T15:20:03.035Z,50.565650793650796
2023-04-27T15:25:04.268Z,53.00986243386243
2023-04-27T15:30:02.699Z,51.40920634920635
2023-04-27T15:35:02.731Z,49.49823280423281
2023-04-27T15:40:02.706Z,47.41815873015874
2023-04-27T15:45:02.782Z,45.53293121693122
2023-04-27T15:50:02.806Z,43.667777777777786
2023-04-27T15:55:02.769Z,41.888814814814815
2023-04-27T16:00:02.773Z,40.11738624338624
2023-04-27T16:05:02.739Z,38.29655026455026
2023-04-27T16:10:02.776Z,36.51314285714286
2023-04-27T16:15:02.753Z,34.79853968253968
2023-04-27T16:20:02.700Z,33.100634920634924
2023-04-27T16:25:02.924Z,31.00827513227513
2023-04-27T16:30:02.913Z,28.917544973544974
2023-04-27T16:35:01.295Z,27.0195873015873
2023-04-27T16:40:01.252Z,24.957883597883598
2023-04-27T16:45:01.232Z,22.978835978835978
2023-04-27T16:50:01.225Z,20.954126984126983
2023-04-27T16:55:01.191Z,19.07595767195767
2023-04-27T17:00:01.232Z,17.04499470899471
2023-04-27T17:05:01.207Z,15.003777777777778
2023-04-27T17:10:01.263Z,13.24748148148148
2023-04-27T17:15:01.251Z,11.444444444444445
2023-04-27T17:20:01.149Z,9.768994708994711
2023-04-27T17:25:01.220Z,5.823883597883597
2023-04-27T17:30:01.218Z,5.956201058201058
2023-04-27T17:35:01.414Z,5.114539682539683
2023-04-27T17:40:01.377Z,2.824
2023-04-27T17:45:01.340Z,2.1344338624338626
2023-04-27T17:50:01.326Z,1.5106666666666668
2023-04-27T17:55:01.284Z,1.3582328042328042
2023-04-27T18:00:01.235Z,1.2425396825396826
2023-04-27T18:05:01.222Z,1.0971534391534392
2023-04-27T18:10:01.309Z,0.8470370370370371
2023-04-27T18:15:03.946Z,0.5533121693121694
2023-04-27T18:20:08.628Z,0.29173544973544974
2023-04-27T18:25:01.278Z,0.37856084656084654
2023-04-27T18:30:01.196Z,0.24100529100529103
2023-04-27T18:35:01.272Z,0
2023-04-27T18:40:01.351Z,0
2023-04-27T18:45:01.310Z,0
2023-04-27T18:50:01.321Z,0
2023-04-27T18:55:01.288Z,0
2023-04-27T19:00:01.287Z,0
2023-04-27T19:05:11.938Z,0
2023-04-27T19:10:01.473Z,0
2023-04-27T19:15:01.443Z,0
2023-04-27T19:20:01.442Z,0
2023-04-27T19:25:01.415Z,0
2023-04-27T19:30:01.344Z,0
2023-04-27T19:35:01.365Z,0
2023-04-27T19:40:01.384Z,0
2023-04-27T19:45:01.420Z,0
2023-04-27T19:50:01.349Z,0
2023-04-27T19:55:01.337Z,0
2023-04-27T20:00:01.389Z,0
2023-04-27T20:05:01.874Z,0
2023-04-27T20:10:01.319Z,0
2023-04-27T20:15:01.416Z,0
2023-04-27T20:20:01.375Z,0
2023-04-27T20:25:01.299Z,0
2023-04-27T20:30:01.440Z,0
2023-04-27T20:35:02.236Z,0
2023-04-27T20:40:01.346Z,0
2023-04-27T20:45:01.352Z,0
2023-04-27T20:50:01.526Z,0
2023-04-27T20:55:01.577Z,0
2023-04-27T21:00:01.587Z,0
2023-04-27T21:05:01.689Z,0
2023-04-27T21:10:01.437Z,0
2023-04-27T21:15:01.404Z,0
2023-04-27T21:20:01.445Z,0
2023-04-27T21:25:01.439Z,0
2023-04-27T21:30:01.389Z,0
2023-04-27T21:35:01.508Z,0
2023-04-27T21:40:01.444Z,0
2023-04-27T21:45:01.434Z,0
2023-04-27T21:50:01.406Z,0
2023-04-27T21:55:01.465Z,0
2023-04-27T22:00:01.470Z,0
2023-04-27T22:05:01.627Z,0
2023-04-27T22:10:01.493Z,0
2023-04-27T22:15:01.467Z,0
2023-04-27T22:20:01.445Z,0
2023-04-27T22:25:01.691Z,0
2023-04-27T22:30:01.583Z,0
2023-04-27T22:35:01.654Z,0
2023-04-27T22:40:01.635Z,0
2023-04-27T22:45:01.672Z,0
2023-04-27T22:50:01.608Z,0
2023-04-27T22:55:01.487Z,0
2023-04-27T23:00:01.555Z,0
2023-04-27T23:05:01.566Z,0
2023-04-27T23:10:01.545Z,0
2023-04-27T23:15:01.620Z,0
2023-04-27T23:20:01.478Z,0
2023-04-27T23:25:01.519Z,0
2023-04-27T23:30:01.645Z,0
2023-04-27T23:35:01.532Z,0
2023-04-27T23:40:01.634Z,0
2023-04-27T23:45:01.556Z,0
2023-04-27T23:50:01.530Z,0
2023-04-27T23:55:01.609Z,0
